Time;durP1;ratioP1;P1;durP2;ratioP2;P2;SDS_P1;SDS_P2;PMS_P1;PMS_P2;Temp;Humidity;BMP_temperature;BMP_pressure;BME280_temperature;BME280_humidity;BME280_pressure;Samples;Min_cycle;Max_cycle;Signal;HPM_P1;HPM_P2
2021/06/25 00:00:48;;;;;;;25.70;17.83;;;;;;;24.13;59.31;99283.72;5051331;28;20481;-58
2021/06/25 00:03:14;;;;;;;24.67;18.23;;;;;;;24.15;59.40;99280.69;5051518;28;20506;-58
2021/06/25 00:05:40;;;;;;;20.70;17.00;;;;;;;24.22;58.67;99283.66;5051489;28;20056;-57
2021/06/25 00:08:05;;;;;;;23.75;19.35;;;;;;;24.22;59.30;99280.97;5050366;28;20079;-60
2021/06/25 00:10:31;;;;;;;25.55;18.00;;;;;;;24.16;59.37;99285.78;5051724;28;20055;-57
2021/06/25 00:12:57;;;;;;;19.45;17.15;;;;;;;24.12;59.50;99284.84;5051671;28;20044;-60
2021/06/25 00:15:23;;;;;;;22.45;16.13;;;;;;;24.19;58.99;99295.16;5051846;28;20049;-59
2021/06/25 00:17:49;;;;;;;29.25;19.63;;;;;;;24.18;59.82;99307.13;5050142;28;20051;-59
2021/06/25 00:20:16;;;;;;;21.45;18.95;;;;;;;24.11;59.54;99293.31;5049865;28;20064;-58
2021/06/25 00:22:43;;;;;;;17.17;15.20;;;;;;;24.11;58.50;99293.31;5051656;28;20445;-59
2021/06/25 00:25:09;;;;;;;21.00;14.77;;;;;;;24.14;58.38;99306.97;5051703;28;20131;-59
2021/06/25 00:27:35;;;;;;;16.65;14.48;;;;;;;24.15;58.81;99302.34;5051353;28;20502;-57
2021/06/25 00:30:01;;;;;;;16.92;15.13;;;;;;;24.11;59.41;99296.00;5051094;28;20064;-59
2021/06/25 00:32:27;;;;;;;19.55;14.88;;;;;;;24.02;59.89;99296.84;5051289;28;20487;-59
2021/06/25 00:34:53;;;;;;;18.98;16.05;;;;;;;23.99;60.06;99294.81;5051670;28;20131;-59
2021/06/25 00:37:19;;;;;;;19.02;14.55;;;;;;;23.93;60.68;99281.81;5051550;28;20494;-60
2021/06/25 00:39:44;;;;;;;23.70;15.98;;;;;;;23.89;61.29;99294.41;5049910;28;20111;-58
2021/06/25 00:42:10;;;;;;;19.55;14.73;;;;;;;23.83;61.43;99284.91;5051188;28;20047;-60
2021/06/25 00:44:40;;;;;;;19.27;14.93;;;;;;;23.76;61.47;99271.88;5051375;28;20049;-57
2021/06/25 00:47:07;;;;;;;17.85;13.60;;;;;;;23.61;61.57;99265.09;5051058;28;20072;-59
2021/06/25 00:49:33;;;;;;;15.55;12.73;;;;;;;23.51;61.49;99270.88;5049853;28;20045;-59
2021/06/25 00:51:59;;;;;;;16.88;12.95;;;;;;;23.45;62.26;99269.47;5051368;28;20395;-60
2021/06/25 00:54:25;;;;;;;17.50;13.80;;;;;;;23.40;62.22;99269.66;5051396;28;20091;-60
2021/06/25 00:56:51;;;;;;;13.95;12.48;;;;;;;23.38;62.62;99269.97;5051217;28;20124;-59
2021/06/25 00:59:17;;;;;;;14.65;11.82;;;;;;;23.29;62.78;99263.81;5049631;28;20049;-59
2021/06/25 01:01:42;;;;;;;15.30;12.88;;;;;;;23.21;63.32;99257.34;5049959;28;20045;-59
2021/06/25 01:04:08;;;;;;;13.82;12.52;;;;;;;23.15;63.07;99261.34;5051112;28;20516;-60
2021/06/25 01:06:34;;;;;;;15.48;12.13;;;;;;;23.09;63.04;99241.00;5051194;28;20060;-60
2021/06/25 01:09:01;;;;;;;22.65;12.13;;;;;;;23.04;63.07;99249.28;5049689;28;20049;-60
2021/06/25 01:11:33;;;;;;;16.50;11.95;;;;;;;23.01;63.29;99244.53;5049614;28;20044;-59
2021/06/25 01:13:59;;;;;;;18.40;12.07;;;;;;;22.98;63.32;99237.84;5049657;28;20410;-59
2021/06/25 01:16:25;;;;;;;18.52;12.25;;;;;;;22.91;63.55;99234.81;5051117;28;20056;-59
2021/06/25 01:18:51;;;;;;;14.38;12.38;;;;;;;22.87;63.83;99241.97;5050633;28;20049;-57
2021/06/25 01:21:16;;;;;;;13.65;12.00;;;;;;;22.84;63.93;99240.72;5050770;28;20052;-59
2021/06/25 01:23:43;;;;;;;15.32;12.70;;;;;;;22.81;63.89;99241.34;5051109;28;20048;-59
2021/06/25 01:26:09;;;;;;;14.10;11.82;;;;;;;22.82;63.80;99236.75;5050760;28;20498;-58
2021/06/25 01:28:35;;;;;;;15.90;12.50;;;;;;;;;;5050647;28;20183;-58
2021/06/25 01:31:02;;;;;;;13.60;12.13;;;;;;;22.83;64.04;99243.75;5050668;28;20557;-59
2021/06/25 01:33:31;;;;;;;14.25;11.88;;;;;;;22.84;63.66;99239.94;5050733;28;20132;-58
2021/06/25 01:35:57;;;;;;;15.32;11.55;;;;;;;22.81;63.56;99233.25;5033181;28;20306;-59
2021/06/25 01:38:24;;;;;;;12.48;11.27;;;;;;;22.80;63.40;99220.09;5050917;28;20507;-59
2021/06/25 01:40:49;;;;;;;12.13;10.70;;;;;;;22.87;63.32;99237.38;5050554;28;20044;-58
2021/06/25 01:43:15;;;;;;;15.07;11.23;;;;;;;22.92;63.17;99241.03;5050994;28;20044;-58
2021/06/25 01:45:42;;;;;;;14.70;11.00;;;;;;;23.00;62.73;99245.63;5054089;28;20036;-58
2021/06/25 01:48:09;;;;;;;14.73;10.65;;;;;;;23.05;62.46;99253.56;5054091;28;20410;-59
2021/06/25 01:50:39;;;;;;;12.45;10.63;;;;;;;23.08;62.50;99250.22;5054364;28;20036;-59
2021/06/25 01:53:10;;;;;;;13.05;11.63;;;;;;;23.13;62.68;99252.75;5053980;28;20036;-59
2021/06/25 01:55:40;;;;;;;14.20;11.32;;;;;;;23.18;62.62;99260.69;5054241;28;20044;-59
2021/06/25 01:58:14;;;;;;;14.85;11.75;;;;;;;23.28;61.82;99259.53;5052940;28;20503;-59
2021/06/25 02:00:54;;;;;;;16.98;11.98;;;;;;;23.47;61.65;99253.69;5054122;28;20452;-58
2021/06/25 02:03:21;;;;;;;14.85;11.48;;;;;;;23.67;60.86;99252.94;5052969;28;20127;-56
2021/06/25 02:05:47;;;;;;;18.17;11.32;;;;;;;23.86;60.13;99246.34;5054059;28;20136;-59
2021/06/25 02:08:12;;;;;;;13.02;10.52;;;;;;;24.07;59.33;99252.56;5053961;28;20045;-59
2021/06/25 02:10:39;;;;;;;15.35;11.00;;;;;;;24.42;58.36;99247.66;5052518;28;20048;-59
2021/06/25 02:13:04;;;;;;;11.85;10.10;;;;;;;24.65;57.36;99239.19;5054099;28;20128;-59
2021/06/25 02:15:30;;;;;;;16.27;9.60;;;;;;;24.93;56.06;99231.19;5052341;28;20190;-59
2021/06/25 02:17:56;;;;;;;14.27;10.45;;;;;;;25.30;55.47;99233.97;5052252;28;20041;-58
2021/06/25 02:20:22;;;;;;;10.25;9.23;;;;;;;25.44;54.75;99211.91;5053258;28;20064;-59
2021/06/25 02:22:48;;;;;;;12.90;9.40;;;;;;;25.99;54.02;99243.84;5053593;28;20044;-60
2021/06/25 02:25:13;;;;;;;10.13;9.02;;;;;;;26.39;53.00;99232.19;5053802;28;20135;-59
2021/06/25 02:27:40;;;;;;;12.23;9.73;;;;;;;26.89;52.00;99230.03;5052226;28;20178;-58
2021/06/25 02:30:08;;;;;;;10.38;9.15;;;;;;;27.36;50.59;99221.06;5053734;28;20080;-58
2021/06/25 02:32:34;;;;;;;12.60;9.70;;;;;;;27.89;48.78;99223.44;5052397;28;20045;-58
2021/06/25 02:34:59;;;;;;;11.50;9.57;;;;;;;28.30;47.58;99228.16;5053519;28;20407;-58
2021/06/25 02:37:25;;;;;;;12.10;9.25;;;;;;;28.57;47.36;99233.75;5051999;28;20044;-59
2021/06/25 02:39:51;;;;;;;10.85;9.43;;;;;;;28.94;45.98;99242.22;5053447;28;20391;-60
2021/06/25 02:42:17;;;;;;;13.10;8.70;;;;;;;29.34;45.94;99234.66;5053465;28;20033;-59
2021/06/25 02:44:42;;;;;;;13.65;9.48;;;;;;;29.61;45.13;99233.50;5053481;28;20052;-58
2021/06/25 02:47:08;;;;;;;12.02;8.57;;;;;;;29.86;43.68;99233.09;5052769;28;20041;-59
2021/06/25 02:49:34;;;;;;;10.80;8.38;;;;;;;30.11;43.78;99241.59;5053268;28;20072;-58
2021/06/25 02:52:00;;;;;;;13.07;8.60;;;;;;;30.41;42.50;99238.06;5052943;28;20520;-58
2021/06/25 02:54:25;;;;;;;10.98;8.20;;;;;;;30.45;42.77;99239.69;5052968;28;20041;-58
2021/06/25 02:56:51;;;;;;;9.65;8.63;;;;;;;30.48;42.33;99241.66;5051714;28;20044;-60
2021/06/25 02:59:17;;;;;;;13.13;8.38;;;;;;;30.51;42.22;99232.72;5053118;28;20045;-59
2021/06/25 03:01:43;;;;;;;10.18;8.07;;;;;;;30.41;42.30;99233.38;5052923;28;20045;-58
2021/06/25 03:04:08;;;;;;;11.10;8.90;;;;;;;30.40;42.30;99241.97;5052877;28;20040;-59
2021/06/25 03:06:34;;;;;;;10.32;8.38;;;;;;;30.24;42.56;99244.91;5052895;28;20044;-59
2021/06/25 03:09:00;;;;;;;10.73;8.73;;;;;;;30.61;42.27;99238.66;5052771;28;20049;-59
2021/06/25 03:11:26;;;;;;;14.80;8.45;;;;;;;30.71;41.42;99238.00;5052550;28;20041;-59
2021/06/25 03:13:51;;;;;;;11.25;8.00;;;;;;;30.69;41.44;99238.34;5052675;28;20048;-59
2021/06/25 03:16:17;;;;;;;9.68;8.68;;;;;;;30.61;41.78;99239.44;5052638;28;20033;-59
2021/06/25 03:18:43;;;;;;;10.57;8.15;;;;;;;30.84;41.46;99244.78;5052223;28;20127;-59
2021/06/25 03:21:09;;;;;;;9.48;8.35;;;;;;;30.97;41.11;99240.63;5052216;28;20565;-58
2021/06/25 03:23:34;;;;;;;11.05;8.38;;;;;;;31.00;41.15;99237.13;5052366;28;20114;-58
2021/06/25 03:26:00;;;;;;;13.23;8.88;;;;;;;31.21;41.13;99236.50;5052198;28;20040;-60
2021/06/25 03:28:26;;;;;;;10.32;8.60;;;;;;;31.49;40.61;99246.09;5052192;28;20060;-58
2021/06/25 03:30:52;;;;;;;11.88;8.40;;;;;;;31.62;40.18;99241.06;5052176;28;20074;-58
2021/06/25 03:33:17;;;;;;;9.70;7.85;;;;;;;31.89;39.62;99233.41;5052383;28;20044;-58
2021/06/25 03:35:43;;;;;;;13.50;8.63;;;;;;;32.24;39.02;99241.03;5051995;28;20542;-59
2021/06/25 03:38:09;;;;;;;12.70;8.50;;;;;;;32.44;39.39;99235.97;5051846;28;20462;-59
2021/06/25 03:40:36;;;;;;;12.93;8.25;;;;;;;32.18;38.85;99230.78;5051903;28;20055;-59
2021/06/25 03:43:04;;;;;;;11.55;8.85;;;;;;;32.11;38.93;99237.03;5052246;28;20036;-59
2021/06/25 03:45:30;;;;;;;12.02;8.55;;;;;;;32.16;38.90;99231.19;5051837;28;20067;-59
2021/06/25 03:47:55;;;;;;;11.73;9.13;;;;;;;32.00;39.54;99233.47;5051824;28;20511;-59
2021/06/25 03:50:21;;;;;;;12.02;9.20;;;;;;;31.94;39.79;99233.06;5050389;28;20418;-59
2021/06/25 03:52:47;;;;;;;14.48;8.88;;;;;;;31.90;39.89;99235.00;5051742;28;20098;-60
2021/06/25 03:55:13;;;;;;;10.30;9.00;;;;;;;32.03;39.92;99241.72;5050461;28;20045;-59
2021/06/25 03:57:40;;;;;;;10.13;8.20;;;;;;;32.08;39.42;99238.59;5050288;28;20045;-58
2021/06/25 04:00:09;;;;;;;17.52;8.93;;;;;;;32.13;39.50;99231.97;5050308;28;20454;-59
2021/06/25 04:02:37;;;;;;;10.52;8.57;;;;;;;32.28;39.30;99224.56;5051391;28;20414;-59
2021/06/25 04:05:05;;;;;;;9.40;8.43;;;;;;;32.53;38.93;99227.38;5051485;28;20094;-59
2021/06/25 04:07:32;;;;;;;10.07;9.07;;;;;;;32.24;39.80;99230.06;5051629;28;20125;-59
2021/06/25 04:09:58;;;;;;;14.40;9.35;;;;;;;32.12;40.26;99231.19;5050274;28;20131;-59
2021/06/25 04:12:23;;;;;;;10.02;8.57;;;;;;;32.29;40.05;99235.13;5051561;28;20045;-58
2021/06/25 04:14:49;;;;;;;9.63;8.77;;;;;;;32.07;39.46;99228.03;5051746;28;20044;-59
2021/06/25 04:17:15;;;;;;;9.65;8.65;;;;;;;31.88;39.62;99223.59;5051729;28;20079;-59
2021/06/25 04:19:41;;;;;;;10.43;8.82;;;;;;;31.66;39.69;99214.50;5049858;28;20420;-58
2021/06/25 04:22:07;;;;;;;9.93;8.80;;;;;;;31.72;40.41;99217.66;5050207;28;20045;-59
2021/06/25 04:24:32;;;;;;;12.90;8.32;;;;;;;31.68;40.23;99215.69;5051595;28;20048;-59
2021/06/25 04:26:58;;;;;;;10.23;8.75;;;;;;;31.61;40.11;99212.13;5051490;28;20095;-59
2021/06/25 04:29:24;;;;;;;13.65;8.93;;;;;;;31.74;40.26;99220.78;5051536;28;20092;-59
2021/06/25 04:31:53;;;;;;;11.15;8.45;;;;;;;31.87;40.00;99211.06;5051021;28;20036;-59
2021/06/25 04:34:19;;;;;;;9.68;8.35;;;;;;;32.28;40.05;99230.84;5051370;28;20053;-59
2021/06/25 04:36:45;;;;;;;11.38;8.50;;;;;;;32.41;38.91;99222.25;5051027;28;20387;-59
2021/06/25 04:39:11;;;;;;;12.23;8.70;;;;;;;32.71;38.56;99230.97;5051076;28;20075;-58
2021/06/25 04:41:37;;;;;;;11.18;8.00;;;;;;;32.77;38.74;99231.38;5051222;28;20510;-59
2021/06/25 04:44:03;;;;;;;9.70;8.45;;;;;;;32.95;37.94;99231.38;5049939;28;20049;-59
2021/06/25 04:46:29;;;;;;;10.52;8.15;;;;;;;32.94;38.30;99227.03;5049869;28;20533;-58
2021/06/25 04:48:55;;;;;;;10.32;9.23;;;;;;;32.86;38.42;99222.75;5051321;28;20049;-60
2021/06/25 04:51:21;;;;;;;11.25;8.85;;;;;;;32.80;38.29;99214.91;5050876;28;20486;-58
2021/06/25 04:53:47;;;;;;;9.57;8.45;;;;;;;32.78;38.41;99213.72;5049974;28;20132;-58
2021/06/25 04:56:13;;;;;;;10.07;8.30;;;;;;;32.66;39.40;99214.88;5050810;28;20037;-59
2021/06/25 04:58:38;;;;;;;10.43;9.13;;;;;;;32.41;39.86;99214.00;5050869;28;20087;-58
2021/06/25 05:01:04;;;;;;;14.57;9.40;;;;;;;32.46;39.44;99208.19;5050872;28;20041;-59
2021/06/25 05:03:30;;;;;;;11.65;9.82;;;;;;;32.75;39.43;99215.28;5049552;28;20569;-58
2021/06/25 05:05:56;;;;;;;12.45;8.55;;;;;;;32.98;38.97;99214.94;5050951;28;20044;-58
2021/06/25 05:08:22;;;;;;;10.18;9.10;;;;;;;32.99;38.13;99204.72;5051021;28;20351;-59
2021/06/25 05:10:48;;;;;;;13.25;9.52;;;;;;;33.14;38.97;99222.75;5050928;28;20041;-59
2021/06/25 05:13:15;;;;;;;10.98;9.63;;;;;;;32.97;38.93;99224.31;5050536;28;20418;-60
2021/06/25 05:15:41;;;;;;;11.18;9.25;;;;;;;32.73;39.90;99225.06;5050840;28;20041;-59
2021/06/25 05:18:18;;;;;;;11.90;9.05;;;;;;;32.66;39.13;99211.34;5050843;28;20082;-59
2021/06/25 05:20:45;;;;;;;12.35;9.15;;;;;;;32.46;40.49;99211.72;5054101;28;20057;-59
2021/06/25 05:23:12;;;;;;;21.25;9.63;;;;;;;32.15;41.10;99210.44;5054615;28;20057;-59
2021/06/25 05:25:38;;;;;;;12.70;9.10;;;;;;;31.99;40.76;99216.25;5053464;28;20156;-59
2021/06/25 05:28:04;;;;;;;11.57;9.23;;;;;;;31.95;40.89;99218.19;5054572;28;20041;-59
2021/06/25 05:30:31;;;;;;;11.02;8.88;;;;;;;32.04;40.62;99223.31;5053973;28;20048;-59
2021/06/25 05:32:58;;;;;;;14.90;8.90;;;;;;;32.11;40.90;99234.31;5052808;28;20051;-59
2021/06/25 05:35:30;;;;;;;14.75;9.43;;;;;;;32.06;40.69;99232.72;5052980;28;20045;-59
2021/06/25 05:38:00;;;;;;;14.65;9.18;;;;;;;31.94;40.49;99238.53;5054428;28;20125;-59
2021/06/25 05:40:26;;;;;;;11.82;9.65;;;;;;;31.74;41.15;99232.56;5052967;28;20044;-58
2021/06/25 05:42:52;;;;;;;13.75;9.38;;;;;;;31.60;41.90;99232.47;5054048;28;20040;-59
2021/06/25 05:45:18;;;;;;;12.52;9.68;;;;;;;31.30;41.93;99229.91;5054405;28;20060;-58
2021/06/25 05:47:44;;;;;;;13.93;8.98;;;;;;;31.26;41.97;99229.88;5052726;28;20587;-59
2021/06/25 05:50:11;;;;;;;19.75;10.50;;;;;;;31.28;42.50;99235.75;5054366;28;20053;-58
2021/06/25 05:52:37;;;;;;;13.07;9.80;;;;;;;31.31;43.17;99243.22;5054095;28;20052;-60
2021/06/25 05:55:03;;;;;;;20.05;11.93;;;;;;;31.33;42.71;99243.63;5054230;28;20049;-58
2021/06/25 05:57:29;;;;;;;13.40;9.40;;;;;;;31.33;41.79;99245.59;5054017;28;20072;-57
2021/06/25 05:59:55;;;;;;;16.50;9.45;;;;;;;31.09;43.25;99239.53;5053795;28;20084;-58
2021/06/25 06:02:21;;;;;;;15.02;9.93;;;;;;;31.18;43.20;99237.25;5052309;28;20044;-59
2021/06/25 06:04:46;;;;;;;16.52;10.50;;;;;;;31.28;42.63;99254.91;5053702;28;20047;-58
2021/06/25 06:07:13;;;;;;;14.98;9.57;;;;;;;31.34;41.83;99258.09;5052102;28;20464;-57
2021/06/25 06:09:39;;;;;;;13.25;10.20;;;;;;;31.40;43.56;99284.78;5051703;28;20112;-60
2021/06/25 06:12:05;;;;;;;17.27;10.25;;;;;;;31.20;44.48;99291.63;5053702;28;20045;-60
2021/06/25 06:14:32;;;;;;;12.45;9.70;;;;;;;31.12;43.73;99292.72;5053495;28;20127;-60
2021/06/25 06:16:58;;;;;;;13.88;9.20;;;;;;;31.10;43.36;99303.28;5053024;28;20075;-60
2021/06/25 06:19:24;;;;;;;13.07;9.82;;;;;;;31.03;42.92;99301.25;5053335;28;20589;-61
2021/06/25 06:35:18;;;;;;;14.95;9.23;;;;;;;30.27;45.36;99339.88;5052303;28;20045;-58
2021/06/25 06:37:49;;;;;;;12.70;8.73;;;;;;;29.98;45.62;99338.66;5052541;28;20048;-60
2021/06/25 06:40:19;;;;;;;10.55;8.57;;;;;;;29.91;45.91;99342.06;5052066;28;20051;-59
2021/06/25 06:42:45;;;;;;;;;;;;;;;29.74;46.52;99340.66;5053447;28;20029;-60
2021/06/25 06:45:11;;;;;;;12.63;8.27;;;;;;;29.63;45.86;99343.22;5053127;28;19924;-59
2021/06/25 06:47:37;;;;;;;9.90;7.95;;;;;;;29.53;45.01;99356.66;5053037;28;20044;-60
2021/06/25 06:50:03;;;;;;;12.93;8.23;;;;;;;29.55;44.55;99341.47;5053149;28;20383;-58
2021/06/25 06:52:30;;;;;;;10.00;7.65;;;;;;;29.71;44.08;99344.13;5051865;28;20099;-59
2021/06/25 06:54:56;;;;;;;11.00;7.78;;;;;;;29.87;43.78;99341.22;5053054;28;20466;-60
2021/06/25 06:57:21;;;;;;;8.65;6.80;;;;;;;29.86;43.05;99351.38;5051506;28;20037;-59
2021/06/25 06:59:47;;;;;;;9.32;6.50;;;;;;;29.98;42.85;99336.72;5052532;28;20060;-58
2021/06/25 07:02:13;;;;;;;9.02;6.25;;;;;;;30.09;41.76;99347.78;5052875;28;20037;-60
2021/06/25 07:04:39;;;;;;;10.77;5.60;;;;;;;30.15;40.63;99338.13;5052697;28;20045;-59
2021/06/25 07:07:04;;;;;;;8.65;5.80;;;;;;;30.04;40.16;99335.22;5052611;28;20052;-59
2021/06/25 07:09:31;;;;;;;8.30;5.38;;;;;;;30.08;39.56;99327.06;5052632;28;20048;-59
2021/06/25 07:11:57;;;;;;;6.25;5.22;;;;;;;30.10;39.65;99328.28;5047375;28;20044;-57
2021/06/25 07:14:23;;;;;;;6.38;4.90;;;;;;;30.09;39.32;99342.31;5034137;28;20114;-58
2021/06/25 07:16:49;;;;;;;9.15;5.75;;;;;;;30.15;39.42;99329.09;5051213;28;20045;-59
2021/06/25 07:19:16;;;;;;;10.95;6.05;;;;;;;30.18;40.56;99342.84;5041297;28;20143;-58
2021/06/25 07:21:41;;;;;;;9.25;5.05;;;;;;;30.23;39.53;99328.06;5048151;28;20098;-58
2021/06/25 07:24:08;;;;;;;5.10;4.63;;;;;;;30.39;38.65;99315.00;5046533;28;20045;-58
2021/06/25 07:26:34;;;;;;;7.68;5.13;;;;;;;30.59;38.75;99337.53;5046993;28;20072;-59
2021/06/25 07:29:00;;;;;;;6.40;4.60;;;;;;;30.69;37.72;99327.84;5047190;28;20041;-59
2021/06/25 07:31:26;;;;;;;4.57;4.18;;;;;;;30.71;37.90;99325.53;5049074;28;20094;-60
2021/06/25 07:33:51;;;;;;;7.65;4.35;;;;;;;30.72;36.68;99324.38;5047669;28;20063;-59
2021/06/25 07:36:18;;;;;;;8.02;3.75;;;;;;;30.81;36.42;99321.38;5048132;28;20068;-58
2021/06/25 07:38:44;;;;;;;5.32;3.45;;;;;;;30.91;36.06;99310.50;5049433;28;20152;-58
2021/06/25 07:41:10;;;;;;;7.07;4.22;;;;;;;31.00;36.55;99324.72;5046824;28;20734;-60
2021/06/25 07:43:36;;;;;;;10.23;4.18;;;;;;;30.96;36.08;99317.59;5049853;28;20533;-57
2021/06/25 07:46:01;;;;;;;4.15;3.42;;;;;;;30.88;34.91;99315.97;5048016;28;20410;-55
2021/06/25 07:48:27;;;;;;;7.07;3.50;;;;;;;30.70;35.09;99319.25;5049588;28;20052;-57
2021/06/25 07:50:53;;;;;;;4.38;2.92;;;;;;;30.69;35.57;99328.66;5048870;28;20044;-55
2021/06/25 07:53:19;;;;;;;8.07;3.00;;;;;;;30.58;35.09;99326.94;5046782;28;20044;-58
2021/06/25 07:55:45;;;;;;;4.35;2.78;;;;;;;30.52;35.35;99310.84;5047541;28;20041;-55
2021/06/25 07:58:13;;;;;;;3.65;3.30;;;;;;;30.41;35.83;99309.94;5013924;28;20075;-57
2021/06/25 08:00:40;;;;;;;4.60;3.13;;;;;;;30.40;36.15;99313.06;5049754;28;20047;-57
2021/06/25 08:03:07;;;;;;;6.63;3.42;;;;;;;30.31;36.46;99322.34;5047567;28;20052;-59
2021/06/25 08:05:33;;;;;;;5.95;3.33;;;;;;;30.16;36.60;99315.09;5049577;28;20564;-58
2021/06/25 08:07:59;;;;;;;10.00;3.65;;;;;;;30.16;36.53;99312.34;5048900;28;20057;-58
2021/06/25 08:10:24;;;;;;;6.97;3.63;;;;;;;30.15;36.70;99304.50;5047850;28;20109;-58
2021/06/25 08:12:50;;;;;;;4.50;3.38;;;;;;;30.19;37.13;99321.75;5048602;28;20499;-60
2021/06/25 08:15:16;;;;;;;7.70;3.60;;;;;;;30.16;37.28;99308.84;5047892;28;20051;-58
2021/06/25 08:17:42;;;;;;;6.07;3.25;;;;;;;30.27;37.34;99309.78;5047338;28;20048;-59
2021/06/25 08:20:09;;;;;;;6.57;3.30;;;;;;;30.23;36.11;99315.19;5047604;28;20339;-58
2021/06/25 08:22:35;;;;;;;6.63;3.42;;;;;;;30.51;35.79;99311.25;5046994;28;20068;-55
2021/06/25 08:25:01;;;;;;;5.40;3.88;;;;;;;30.60;36.31;99310.97;5046239;28;20077;-58
2021/06/25 08:27:27;;;;;;;8.75;3.97;;;;;;;30.74;36.35;99297.44;5047815;28;20634;-58
2021/06/25 08:30:05;;;;;;;6.85;3.40;;;;;;;30.83;36.17;99297.94;5049078;28;20119;-57
2021/06/25 08:32:31;;;;;;;4.20;3.58;;;;;;;30.72;36.88;99292.31;5046783;28;20040;-56
2021/06/25 08:34:57;;;;;;;8.15;3.55;;;;;;;30.83;36.37;99288.97;5049549;28;20045;-55
2021/06/25 08:37:22;;;;;;;6.78;3.60;;;;;;;31.01;36.52;99287.16;5047434;28;20041;-55
2021/06/25 08:39:48;;;;;;;6.63;3.70;;;;;;;31.21;36.65;99274.03;5045647;28;20049;-57
2021/06/25 08:42:14;;;;;;;4.18;3.72;;;;;;;31.26;36.00;99265.47;5047362;28;20037;-59
2021/06/25 08:44:40;;;;;;;5.40;3.97;;;;;;;31.40;36.44;99271.06;5047655;28;20049;-57
2021/06/25 08:47:08;;;;;;;4.05;3.58;;;;;;;31.40;35.83;99275.78;5027736;28;20084;-58
2021/06/25 08:49:35;;;;;;;7.78;4.22;;;;;;;31.53;36.06;99277.03;5047062;28;20519;-57
2021/06/25 08:52:02;;;;;;;6.07;3.92;;;;;;;31.59;36.29;99281.00;5047305;28;20414;-58
2021/06/25 08:54:29;;;;;;;11.90;4.40;;;;;;;31.49;36.71;99269.97;5034834;28;20052;-58
2021/06/25 08:56:56;;;;;;;7.15;4.50;;;;;;;31.37;36.91;99276.53;5052730;28;20049;-58
2021/06/25 08:59:22;;;;;;;8.93;4.05;;;;;;;31.32;37.54;99266.69;5049282;28;20078;-58
2021/06/25 09:01:49;;;;;;;8.95;4.35;;;;;;;31.41;37.77;99267.19;5050283;28;20041;-57
2021/06/25 09:04:38;;;;;;;4.85;3.95;;;;;;;31.50;36.68;99268.78;5050179;28;20053;-58
2021/06/25 09:07:05;;;;;;;4.38;3.97;;;;;;;31.40;37.10;99264.81;5051821;28;20449;-58
2021/06/25 09:09:38;;;;;;;5.05;4.55;;;;;;;31.55;36.81;99261.00;5032881;28;20037;-57
2021/06/25 09:12:09;;;;;;;8.15;4.55;;;;;;;31.62;36.91;99254.78;5049852;28;20541;-60
2021/06/25 09:14:58;;;;;;;5.38;4.22;;;;;;;31.77;36.50;99250.97;5053432;28;20136;-56
2021/06/25 09:17:24;;;;;;;6.18;4.57;;;;;;;31.81;37.07;99260.00;5051170;28;20119;-58
2021/06/25 09:19:49;;;;;;;5.10;4.30;;;;;;;31.77;36.42;99258.38;5049596;28;20064;-57
2021/06/25 09:22:16;;;;;;;6.40;4.72;;;;;;;31.76;36.44;99254.09;5051141;28;20040;-58
2021/06/25 09:24:42;;;;;;;7.60;4.78;;;;;;;31.65;36.69;99245.78;5052310;28;20037;-58
2021/06/25 09:27:09;;;;;;;5.05;4.30;;;;;;;31.77;36.67;99259.19;5050919;28;20190;-59
2021/06/25 09:29:39;;;;;;;6.65;4.90;;;;;;;31.82;36.52;99249.81;5048970;28;20048;-58
2021/06/25 09:32:10;;;;;;;6.50;4.47;;;;;;;31.93;36.41;99249.91;5046895;28;20048;-58
2021/06/25 09:34:40;;;;;;;7.07;4.70;;;;;;;31.88;36.31;99240.03;5048633;28;20055;-57
2021/06/25 09:37:10;;;;;;;9.25;4.78;;;;;;;31.88;35.82;99232.59;5050650;28;20041;-58
2021/06/25 09:39:41;;;;;;;13.48;4.80;;;;;;;31.80;36.09;99233.75;5032668;28;20044;-58
2021/06/25 09:42:16;;;;;;;6.78;4.75;;;;;;;31.72;36.33;99231.38;5050612;28;20056;-58
2021/06/25 09:45:03;;;;;;;9.98;5.18;;;;;;;31.71;38.26;99230.59;5050353;28;20109;-57
2021/06/25 09:47:37;;;;;;;16.05;6.00;;;;;;;31.68;38.34;99237.63;5048830;28;20647;-58
2021/06/25 09:50:08;;;;;;;7.25;5.03;;;;;;;31.52;37.92;99228.13;5051216;28;20052;-58
2021/06/25 09:53:03;;;;;;;6.55;5.90;;;;;;;31.37;37.61;99224.50;5050703;28;20065;-58
2021/06/25 09:55:50;;;;;;;8.55;5.80;;;;;;;31.28;39.00;99224.03;5050577;28;20049;-59
2021/06/25 10:03:55;;;;;;;7.28;4.80;;;;;;;31.21;37.55;99217.34;5048769;28;20051;-58
2021/06/25 10:06:26;;;;;;;9.43;4.85;;;;;;;31.14;37.93;99216.47;5051191;28;20049;-57
2021/06/25 10:08:53;;;;;;;8.02;5.28;;;;;;;31.15;36.51;99218.84;5051115;28;20510;-57
2021/06/25 10:11:24;;;;;;;7.28;5.65;;;;;;;31.19;38.05;99219.66;5048246;28;20056;-58
2021/06/25 10:13:52;;;;;;;11.15;5.85;;;;;;;31.27;37.37;99222.44;5049700;28;20128;-58
2021/06/25 10:16:18;;;;;;;7.10;5.55;;;;;;;31.38;37.29;99213.16;5030917;28;20053;-57
2021/06/25 10:18:50;;;;;;;8.40;5.40;;;;;;;31.38;37.09;99224.09;5049809;28;20060;-58
2021/06/25 10:21:18;;;;;;;9.90;5.78;;;;;;;31.35;37.23;99221.34;5049083;28;20041;-58
2021/06/25 10:23:55;;;;;;;7.40;5.28;;;;;;;31.30;37.37;99233.44;5049225;28;20048;-59
2021/06/25 10:26:23;;;;;;;11.55;5.82;;;;;;;31.35;36.70;99230.34;5052489;28;20041;-62
2021/06/25 10:28:50;;;;;;;9.10;5.10;;;;;;;31.44;36.38;99228.09;5051791;28;20041;-57
2021/06/25 10:31:21;;;;;;;6.47;4.78;;;;;;;31.56;35.63;99226.97;5014032;28;20525;-58
2021/06/25 10:33:47;;;;;;;7.07;4.95;;;;;;;31.65;35.73;99213.72;5050429;28;20052;-56
2021/06/25 10:36:15;;;;;;;8.65;5.07;;;;;;;31.66;35.52;99211.75;5052052;28;20037;-57
2021/06/25 10:38:43;;;;;;;11.60;5.63;;;;;;;31.70;36.42;99204.34;5047148;28;20041;-58
2021/06/25 10:41:11;;;;;;;10.35;5.70;;;;;;;31.71;36.10;99210.59;5047791;28;20518;-58
2021/06/25 10:43:55;;;;;;;7.80;5.20;;;;;;;31.73;35.75;99211.00;5047695;28;20048;-58
2021/06/25 10:46:35;;;;;;;8.95;5.45;;;;;;;31.69;36.38;99205.50;5050507;28;20085;-58
2021/06/25 10:49:14;;;;;;;10.57;5.97;;;;;;;31.72;37.00;99203.97;5050555;28;20148;-58
2021/06/25 10:51:44;;;;;;;10.02;5.65;;;;;;;31.75;36.76;99217.69;5049375;28;20048;-58
2021/06/25 10:54:15;;;;;;;15.77;5.57;;;;;;;31.82;36.69;99219.66;5047725;28;20110;-58
2021/06/25 10:57:05;;;;;;;12.00;5.75;;;;;;;31.96;35.75;99217.00;5048980;28;20095;-58
2021/06/25 10:59:41;;;;;;;11.27;5.40;;;;;;;32.00;35.83;99211.53;5047723;28;20052;-59
2021/06/25 11:02:07;;;;;;;8.50;5.40;;;;;;;32.14;35.68;99206.13;5047159;28;20124;-57
2021/06/25 11:04:45;;;;;;;9.40;5.32;;;;;;;32.26;35.46;99203.00;5041190;28;20077;-58
2021/06/25 11:07:14;;;;;;;10.38;6.00;;;;;;;32.34;35.70;99190.09;5046897;28;20070;-57
2021/06/25 11:09:51;;;;;;;10.07;5.90;;;;;;;32.42;35.58;99196.41;5049037;28;20139;-58
2021/06/25 11:12:30;;;;;;;9.75;5.93;;;;;;;32.40;35.75;99201.47;5046033;28;20820;-58
2021/06/25 11:15:05;;;;;;;9.83;6.07;;;;;;;32.23;34.92;99195.56;5048801;28;20057;-57
2021/06/25 11:17:45;;;;;;;7.22;5.82;;;;;;;32.21;35.68;99191.63;5051967;28;20037;-57
2021/06/25 11:20:25;;;;;;;6.93;5.82;;;;;;;32.17;35.33;99190.84;5021491;28;20107;-59
2021/06/25 11:23:03;;;;;;;8.32;5.70;;;;;;;32.27;35.45;99182.66;5044330;28;20052;-58
2021/06/25 11:25:46;;;;;;;10.15;5.75;;;;;;;32.28;36.12;99184.22;5051936;28;20488;-58
2021/06/25 11:30:54;;;;;;;7.38;5.90;;;;;;;32.16;36.03;99181.06;5051826;28;20502;-56
2021/06/25 11:33:31;;;;;;;8.05;6.70;;;;;;;32.05;35.89;99176.31;5051767;28;20049;-59
2021/06/25 11:36:22;;;;;;;11.05;7.47;;;;;;;32.06;35.77;99174.34;5051836;28;20041;-57
2021/06/25 11:38:55;;;;;;;11.07;7.75;;;;;;;32.07;36.47;99175.94;5046714;28;20479;-56
2021/06/25 11:41:27;;;;;;;11.75;7.75;;;;;;;32.12;37.95;99164.56;5046467;28;20044;-57
2021/06/25 11:43:57;;;;;;;11.43;7.05;;;;;;;32.18;37.17;99171.28;5048014;28;20105;-57
2021/06/25 11:46:24;;;;;;;12.07;8.38;;;;;;;32.15;37.79;99160.28;5046038;28;20056;-58
2021/06/25 11:48:51;;;;;;;9.68;7.25;;;;;;;32.20;37.49;99163.44;5045641;28;20076;-59
2021/06/25 11:51:21;;;;;;;10.55;7.95;;;;;;;32.15;36.89;99163.81;5046444;28;20041;-58